Time;durP1;ratioP1;P1;durP2;ratioP2;P2;SDS_P1;SDS_P2;PMS_P1;PMS_P2;Temp;Humidity;BMP_temperature;BMP_pressure;BME280_temperature;BME280_humidity;BME280_pressure;Samples;Min_cycle;Max_cycle;Signal;HPM_P1;HPM_P2
2021/09/25 06:27:17;;;;;;;5.30;1.52;;;;;;;;;;1046296;27;100026;-52
2021/09/25 06:27:48;;;;;;;2.85;1.60;;;;;;;;;;1039356;28;100528;-52
2021/09/25 06:28:19;;;;;;;3.13;1.33;;;;;;;;;;1038872;27;99894;-50
2021/09/25 06:28:50;;;;;;;3.25;1.45;;;;;;;;;;1035327;28;100327;-52
2021/09/25 06:29:21;;;;;;;3.00;1.83;;;;;;;;;;1040459;28;99861;-51
2021/09/25 06:29:52;;;;;;;1.92;1.45;;;;;;;;;;1039692;28;100802;-53
2021/09/25 06:30:23;;;;;;;4.47;1.70;;;;;;;;;;1044106;27;100030;-52
2021/09/25 06:30:53;;;;;;;3.25;1.45;;;;;;;;;;1039815;27;100434;-52
2021/09/25 06:31:24;;;;;;;4.05;1.70;;;;;;;;;;1043679;27;100127;-50
2021/09/25 06:31:55;;;;;;;4.15;1.35;;;;;;;;;;1041838;27;100375;-52
2021/09/25 06:32:26;;;;;;;1.95;1.23;;;;;;;;;;1042631;27;99997;-51
2021/09/25 06:32:56;;;;;;;4.50;2.00;;;;;;;;;;1043665;27;100409;-53
2021/09/25 06:33:27;;;;;;;4.93;1.60;;;;;;;;;;1044242;27;99873;-50
2021/09/25 06:33:58;;;;;;;1.73;1.38;;;;;;;;;;1039683;27;100439;-51
2021/09/25 06:34:29;;;;;;;4.43;1.50;;;;;;;;;;1041561;27;99931;-52
2021/09/25 06:35:00;;;;;;;4.38;1.30;;;;;;;;;;1041600;27;100426;-52
2021/09/25 06:35:31;;;;;;;3.03;1.38;;;;;;;;;;1042397;27;99985;-53
2021/09/25 06:36:01;;;;;;;1.40;1.23;;;;;;;;;;1043455;27;101621;-49
2021/09/25 06:36:33;;;;;;;2.33;1.20;;;;;;;;;;1044118;27;100160;-52
2021/09/25 06:37:04;;;;;;;4.03;1.15;;;;;;;;;;1039701;28;100486;-52
2021/09/25 06:37:35;;;;;;;2.20;1.33;;;;;;;;;;1040691;28;100105;-53
2021/09/25 06:38:06;;;;;;;3.08;1.60;;;;;;;;;;1039434;28;101499;-52
2021/09/25 06:38:37;;;;;;;1.48;1.10;;;;;;;;;;1040856;28;99864;-52
2021/09/25 06:39:08;;;;;;;4.13;1.45;;;;;;;;;;1039649;28;100238;-53
2021/09/25 06:39:39;;;;;;;1.67;1.33;;;;;;;;;;1041170;28;99821;-52
2021/09/25 06:40:11;;;;;;;2.15;1.45;;;;;;;;;;1039447;28;101751;-53
2021/09/25 06:40:42;;;;;;;3.25;1.52;;;;;;;;;;1041065;28;100122;-50
2021/09/25 06:41:13;;;;;;;1.60;1.45;;;;;;;;;;1035064;28;100380;-49
2021/09/25 06:41:44;;;;;;;3.58;1.55;;;;;;;;;;1036747;27;100359;-50
2021/09/25 06:42:15;;;;;;;1.63;1.50;;;;;;;;;;1032893;28;101754;-52
2021/09/25 06:42:46;;;;;;;2.30;1.40;;;;;;;;;;1036942;28;100037;-52
2021/09/25 06:43:17;;;;;;;3.30;1.30;;;;;;;;;;1039410;28;100688;-52
2021/09/25 06:43:47;;;;;;;5.20;1.65;;;;;;;;;;1040625;27;100031;-52
2021/09/25 06:44:18;;;;;;;3.30;1.50;;;;;;;;;;1043875;27;100535;-50
2021/09/25 06:44:49;;;;;;;4.68;1.30;;;;;;;;;;1044975;27;100050;-51
2021/09/25 06:45:20;;;;;;;3.22;1.40;;;;;;;;;;1043616;27;101366;-51
2021/09/25 06:45:51;;;;;;;3.45;1.63;;;;;;;;;;1045073;27;99971;-50
2021/09/25 06:46:22;;;;;;;6.88;1.60;;;;;;;;;;1043374;27;101453;-47
2021/09/25 06:46:53;;;;;;;1.65;1.55;;;;;;;;;;1040722;28;100164;-46
2021/09/25 06:47:24;;;;;;;1.77;1.35;;;;;;;;;;1039345;28;100438;-47
2021/09/25 06:47:54;;;;;;;2.42;1.48;;;;;;;;;;1040651;28;100034;-46
2021/09/25 06:48:25;;;;;;;3.92;1.48;;;;;;;;;;1039590;27;100266;-46
2021/09/25 06:48:56;;;;;;;1.77;1.55;;;;;;;;;;1044974;27;100074;-46
2021/09/25 06:49:27;;;;;;;4.20;1.40;;;;;;;;;;1043871;27;100789;-47
2021/09/25 06:49:57;;;;;;;3.70;1.60;;;;;;;;;;1044980;27;100034;-47
2021/09/25 06:50:28;;;;;;;1.83;1.50;;;;;;;;;;1039041;28;101567;-46
2021/09/25 06:50:59;;;;;;;3.25;1.42;;;;;;;;;;1038479;27;102071;-47
2021/09/25 06:51:30;;;;;;;2.28;1.30;;;;;;;;;;1038289;28;101730;-52
2021/09/25 06:52:01;;;;;;;1.58;1.00;;;;;;;;;;1038293;28;100155;-52
2021/09/25 06:52:33;;;;;;;3.22;1.35;;;;;;;;;;1039007;28;100432;-53
2021/09/25 06:53:03;;;;;;;4.93;1.70;;;;;;;;;;1034639;28;99996;-51
2021/09/25 06:53:34;;;;;;;4.18;1.27;;;;;;;;;;1034891;28;101474;-47
2021/09/25 06:54:05;;;;;;;3.67;1.30;;;;;;;;;;1036673;28;100061;-54
2021/09/25 06:54:37;;;;;;;3.40;1.17;;;;;;;;;;1034545;28;100666;-48
2021/09/25 06:55:09;;;;;;;1.58;1.10;;;;;;;;;;1035881;28;100142;-47
2021/09/25 06:55:39;;;;;;;4.05;1.50;;;;;;;;;;1030279;28;102152;-48
2021/09/25 06:56:10;;;;;;;1.58;1.27;;;;;;;;;;1032279;28;100043;-46
2021/09/25 06:56:42;;;;;;;3.13;1.50;;;;;;;;;;1039010;28;101611;-47
2021/09/25 06:57:12;;;;;;;1.83;1.20;;;;;;;;;;1040480;27;100131;-46
2021/09/25 06:57:43;;;;;;;4.22;1.65;;;;;;;;;;1043716;27;100650;-48
2021/09/25 06:58:14;;;;;;;4.50;1.40;;;;;;;;;;1044407;27;100585;-47
2021/09/25 06:58:45;;;;;;;2.38;1.30;;;;;;;;;;1043461;27;101289;-48
2021/09/25 06:59:16;;;;;;;2.47;1.52;;;;;;;;;;1044971;27;99928;-47
2021/09/25 06:59:47;;;;;;;4.32;1.70;;;;;;;;;;1043671;27;100432;-50
2021/09/25 07:00:18;;;;;;;4.20;1.40;;;;;;;;;;1044752;27;100199;-50
2021/09/25 07:00:50;;;;;;;2.00;1.27;;;;;;;;;;1043660;27;100239;-47
2021/09/25 07:01:20;;;;;;;6.10;1.60;;;;;;;;;;1044760;27;100184;-48
2021/09/25 07:01:51;;;;;;;2.15;1.23;;;;;;;;;;1043628;27;100419;-47
2021/09/25 07:02:22;;;;;;;2.90;1.40;;;;;;;;;;1044851;27;100291;-48
2021/09/25 07:02:53;;;;;;;7.22;1.48;;;;;;;;;;1023604;28;100542;-47
2021/09/25 07:03:24;;;;;;;4.68;1.50;;;;;;;;;;1027807;28;99980;-47
2021/09/25 07:03:55;;;;;;;1.80;1.48;;;;;;;;;;1018043;28;100764;-48
2021/09/25 07:04:26;;;;;;;2.63;1.40;;;;;;;;;;1020264;28;100186;-47
2021/09/25 07:04:56;;;;;;;4.63;1.40;;;;;;;;;;1034572;28;101602;-49
2021/09/25 07:05:27;;;;;;;1.95;1.30;;;;;;;;;;1036379;28;99879;-50
2021/09/25 07:05:58;;;;;;;7.03;1.55;;;;;;;;;;1035027;28;100369;-48
2021/09/25 07:06:29;;;;;;;2.75;1.50;;;;;;;;;;1035750;28;100403;-51
2021/09/25 07:07:00;;;;;;;3.08;1.45;;;;;;;;;;1034777;28;101418;-51
2021/09/25 07:07:31;;;;;;;2.08;1.17;;;;;;;;;;1036388;28;99910;-47
2021/09/25 07:08:01;;;;;;;4.90;1.52;;;;;;;;;;1034703;28;101576;-49
2021/09/25 07:08:34;;;;;;;3.60;1.50;;;;;;;;;;1036083;28;100203;-52
2021/09/25 07:09:05;;;;;;;1.92;1.30;;;;;;;;;;1034751;28;100749;-49
2021/09/25 07:09:36;;;;;;;2.78;1.33;;;;;;;;;;1036371;28;100103;-48
2021/09/25 07:10:08;;;;;;;3.40;1.50;;;;;;;;;;1034977;28;100956;-53
2021/09/25 07:10:39;;;;;;;4.45;1.60;;;;;;;;;;1031993;28;100120;-52
2021/09/25 07:11:10;;;;;;;3.92;1.50;;;;;;;;;;1026480;28;101220;-46
2021/09/25 07:11:41;;;;;;;2.05;1.60;;;;;;;;;;1028058;28;100094;-50
2021/09/25 07:12:12;;;;;;;3.53;1.60;;;;;;;;;;1026747;28;101963;-52
2021/09/25 07:12:43;;;;;;;2.90;1.55;;;;;;;;;;1032241;28;99912;-51
2021/09/25 07:13:14;;;;;;;3.40;1.40;;;;;;;;;;1030554;28;103697;-48
2021/09/25 07:13:45;;;;;;;3.97;1.50;;;;;;;;;;1031999;28;100106;-52
2021/09/25 07:14:16;;;;;;;2.45;1.40;;;;;;;;;;1030432;28;101240;-54
2021/09/25 07:14:47;;;;;;;3.58;1.38;;;;;;;;;;1028085;28;100049;-53
2021/09/25 07:15:18;;;;;;;2.25;1.33;;;;;;;;;;1022702;28;100689;-50
2021/09/25 07:15:49;;;;;;;5.15;1.50;;;;;;;;;;1023727;28;100287;-48
2021/09/25 07:16:20;;;;;;;3.38;1.48;;;;;;;;;;1014391;28;102204;-54
2021/09/25 07:16:51;;;;;;;4.35;1.40;;;;;;;;;;1016050;28;100110;-50
2021/09/25 07:17:26;;;;;;;4.50;1.40;;;;;;;;;;1023022;28;100500;-49
2021/09/25 07:17:58;;;;;;;4.70;1.50;;;;;;;;;;1021315;28;99934;-46
2021/09/25 07:18:28;;;;;;;5.57;1.30;;;;;;;;;;1026705;28;100392;-46
2021/09/25 07:18:59;;;;;;;2.25;1.33;;;;;;;;;;1027838;28;100377;-46
2021/09/25 07:19:30;;;;;;;6.25;1.85;;;;;;;;;;1018721;28;100576;-49
2021/09/25 07:20:01;;;;;;;3.25;1.58;;;;;;;;;;1027496;28;99931;-49
2021/09/25 07:20:32;;;;;;;2.70;1.48;;;;;;;;;;1026414;28;100516;-56
2021/09/25 07:21:04;;;;;;;5.50;1.33;;;;;;;;;;1023389;28;100154;-55
2021/09/25 07:21:35;;;;;;;5.03;1.60;;;;;;;;;;1030745;28;100356;-51
2021/09/25 07:22:07;;;;;;;4.03;1.55;;;;;;;;;;1031627;28;100059;-48
2021/09/25 07:22:38;;;;;;;4.22;1.63;;;;;;;;;;1031223;28;100397;-47
2021/09/25 07:23:09;;;;;;;5.05;1.50;;;;;;;;;;1035918;28;100295;-51
2021/09/25 07:23:41;;;;;;;4.97;1.65;;;;;;;;;;1026176;28;100517;-49
2021/09/25 07:24:12;;;;;;;6.55;1.63;;;;;;;;;;1027228;28;99755;-52
2021/09/25 07:24:43;;;;;;;4.00;1.50;;;;;;;;;;1018105;28;103820;-57
2021/09/25 07:25:14;;;;;;;5.25;1.38;;;;;;;;;;1019283;28;100147;-56
2021/09/25 07:25:45;;;;;;;5.57;1.73;;;;;;;;;;1018642;28;100773;-57
2021/09/25 07:26:16;;;;;;;5.70;1.58;;;;;;;;;;1019661;28;100031;-57
2021/09/25 07:26:47;;;;;;;10.77;1.60;;;;;;;;;;1022271;28;101367;-55
2021/09/25 07:27:18;;;;;;;6.55;1.50;;;;;;;;;;1023698;28;99377;-57
2021/09/25 07:27:50;;;;;;;5.30;1.40;;;;;;;;;;1027013;28;101610;-56
2021/09/25 07:28:21;;;;;;;3.28;1.45;;;;;;;;;;1035775;28;99920;-56
2021/09/25 07:28:52;;;;;;;7.75;1.30;;;;;;;;;;1034234;28;101519;-58
2021/09/25 07:29:23;;;;;;;3.47;1.55;;;;;;;;;;1032344;28;100111;-58
2021/09/25 07:29:55;;;;;;;4.05;1.50;;;;;;;;;;1030560;28;100429;-57
2021/09/25 07:30:26;;;;;;;4.22;1.25;;;;;;;;;;1031421;28;99910;-57
2021/09/25 07:30:57;;;;;;;2.60;1.55;;;;;;;;;;1022569;28;100439;-57
2021/09/25 07:31:28;;;;;;;1.95;1.30;;;;;;;;;;1023392;28;99885;-57
2021/09/25 07:31:58;;;;;;;4.82;1.83;;;;;;;;;;1022461;28;100737;-57
2021/09/25 07:32:29;;;;;;;5.25;1.50;;;;;;;;;;1024214;28;99873;-58
2021/09/25 07:33:00;;;;;;;7.30;1.80;;;;;;;;;;1027470;28;103085;-58
2021/09/25 07:33:32;;;;;;;3.15;1.50;;;;;;;;;;1027443;28;100101;-58
2021/09/25 07:34:02;;;;;;;7.18;1.60;;;;;;;;;;1018619;28;100509;-58
2021/09/25 07:34:33;;;;;;;5.13;1.50;;;;;;;;;;1019906;28;100035;-57
2021/09/25 07:35:07;;;;;;;1.98;1.40;;;;;;;;;;1023021;28;100695;-56
2021/09/25 07:35:38;;;;;;;3.05;1.50;;;;;;;;;;1024444;28;100265;-58
2021/09/25 07:36:09;;;;;;;4.90;1.75;;;;;;;;;;1038486;28;100457;-57
2021/09/25 07:36:40;;;;;;;2.00;1.45;;;;;;;;;;1040203;28;100043;-57
2021/09/25 07:37:11;;;;;;;6.72;1.80;;;;;;;;;;1037294;27;100461;-58
2021/09/25 07:37:42;;;;;;;7.70;1.80;;;;;;;;;;1040275;27;100097;-58
2021/09/25 07:38:13;;;;;;;3.08;1.48;;;;;;;;;;1036424;28;100421;-58
2021/09/25 07:38:44;;;;;;;6.38;2.03;;;;;;;;;;1038158;27;100290;-59
2021/09/25 07:39:15;;;;;;;3.00;1.85;;;;;;;;;;1040162;28;100514;-58
2021/09/25 07:39:46;;;;;;;3.47;1.67;;;;;;;;;;1040301;28;100206;-59
2021/09/25 07:40:17;;;;;;;4.63;1.73;;;;;;;;;;1040170;28;100487;-59
2021/09/25 07:40:51;;;;;;;2.08;1.73;;;;;;;;;;1031720;28;100095;-58
2021/09/25 07:41:23;;;;;;;5.40;1.75;;;;;;;;;;1032044;28;100373;-58
2021/09/25 07:41:53;;;;;;;4.43;1.88;;;;;;;;;;1032737;28;100825;-58
2021/09/25 07:42:25;;;;;;;5.20;2.50;;;;;;;;;;1032770;28;100375;-58
2021/09/25 07:42:55;;;;;;;6.03;2.25;;;;;;;;;;1037870;28;99939;-58
2021/09/25 07:43:26;;;;;;;4.50;2.25;;;;;;;;;;1036476;28;100820;-58
2021/09/25 07:43:59;;;;;;;5.03;2.10;;;;;;;;;;1028961;28;99918;-58
2021/09/25 07:44:30;;;;;;;3.58;1.80;;;;;;;;;;1027858;28;100486;-58
2021/09/25 07:45:03;;;;;;;3.58;1.83;;;;;;;;;;1029258;28;99856;-58
2021/09/25 07:45:34;;;;;;;7.50;1.70;;;;;;;;;;1025022;28;101714;-58
2021/09/25 07:46:05;;;;;;;3.85;1.70;;;;;;;;;;1028951;28;100144;-59
2021/09/25 07:46:36;;;;;;;3.67;1.58;;;;;;;;;;1027838;28;100468;-58
2021/09/25 07:47:08;;;;;;;4.97;1.65;;;;;;;;;;1029426;28;99888;-58
2021/09/25 07:47:40;;;;;;;4.28;1.80;;;;;;;;;;1032260;28;100870;-59
2021/09/25 07:48:11;;;;;;;5.72;2.00;;;;;;;;;;1037688;27;100192;-58
2021/09/25 07:48:42;;;;;;;5.35;1.85;;;;;;;;;;1038948;27;100690;-58
2021/09/25 07:49:13;;;;;;;4.57;1.92;;;;;;;;;;1041852;28;99877;-59
2021/09/25 07:49:43;;;;;;;5.10;1.58;;;;;;;;;;1035847;28;101525;-58
2021/09/25 07:50:14;;;;;;;7.22;1.75;;;;;;;;;;1037292;28;100330;-58
2021/09/25 07:50:45;;;;;;;3.80;1.70;;;;;;;;;;1035931;28;101381;-58
2021/09/25 07:51:16;;;;;;;8.25;2.30;;;;;;;;;;1037735;28;100142;-59
2021/09/25 07:51:47;;;;;;;5.50;1.73;;;;;;;;;;1040582;28;100336;-58
2021/09/25 07:52:18;;;;;;;4.75;1.70;;;;;;;;;;1032968;28;99886;-58
2021/09/25 07:52:49;;;;;;;6.32;1.95;;;;;;;;;;1031976;28;100788;-59
2021/09/25 07:53:20;;;;;;;4.63;2.03;;;;;;;;;;1033461;28;99938;-58
2021/09/25 07:53:51;;;;;;;5.90;1.70;;;;;;;;;;1032647;28;100748;-59
2021/09/25 07:54:22;;;;;;;5.78;2.17;;;;;;;;;;1041907;28;100158;-58
2021/09/25 07:54:53;;;;;;;3.45;1.88;;;;;;;;;;1040663;28;100302;-58
2021/09/25 07:55:25;;;;;;;5.32;2.13;;;;;;;;;;1037297;28;100000;-57
2021/09/25 07:55:56;;;;;;;4.80;1.83;;;;;;;;;;1035959;28;101437;-57
2021/09/25 07:56:27;;;;;;;3.95;1.80;;;;;;;;;;1032955;28;99868;-55
2021/09/25 07:56:58;;;;;;;3.88;1.88;;;;;;;;;;1032484;28;100502;-51
2021/09/25 07:57:29;;;;;;;8.68;2.13;;;;;;;;;;1037331;28;99921;-56
2021/09/25 07:58:00;;;;;;;4.10;1.90;;;;;;;;;;1036321;28;100348;-52
2021/09/25 07:58:30;;;;;;;4.20;2.00;;;;;;;;;;1041614;28;99924;-50
2021/09/25 07:59:01;;;;;;;4.25;2.00;;;;;;;;;;1040619;28;100504;-55
2021/09/25 07:59:32;;;;;;;11.80;1.83;;;;;;;;;;1042049;28;99962;-50
2021/09/25 08:00:05;;;;;;;5.25;1.63;;;;;;;;;;1035846;28;101807;-49
2021/09/25 08:00:43;;;;;;;7.88;2.08;;;;;;;;;;1036963;28;100224;-53
2021/09/25 08:01:14;;;;;;;3.65;2.00;;;;;;;;;;1036378;28;100447;-55
2021/09/25 08:01:45;;;;;;;6.50;2.42;;;;;;;;;;1038958;28;99861;-52
2021/09/25 08:02:16;;;;;;;6.05;2.22;;;;;;;;;;1040768;28;100696;-57
2021/09/25 08:02:47;;;;;;;5.63;2.15;;;;;;;;;;1032456;28;100215;-58
2021/09/25 08:03:18;;;;;;;4.72;2.03;;;;;;;;;;1031886;28;101364;-56
2021/09/25 08:03:49;;;;;;;4.82;2.05;;;;;;;;;;1033001;28;99876;-58
2021/09/25 08:04:20;;;;;;;6.05;2.05;;;;;;;;;;1028229;28;101446;-57
2021/09/25 08:04:51;;;;;;;6.47;1.95;;;;;;;;;;1037301;28;100143;-58
2021/09/25 08:05:22;;;;;;;4.25;2.05;;;;;;;;;;1031919;28;103418;-58
2021/09/25 08:05:53;;;;;;;6.35;2.10;;;;;;;;;;1033313;28;99930;-59
2021/09/25 08:06:24;;;;;;;5.90;2.63;;;;;;;;;;1036306;28;100265;-59
2021/09/25 08:06:55;;;;;;;6.57;2.65;;;;;;;;;;1033062;28;100249;-58
2021/09/25 08:07:25;;;;;;;5.45;2.88;;;;;;;;;;1036265;28;100706;-56
2021/09/25 08:07:56;;;;;;;8.65;2.90;;;;;;;;;;1037090;28;99843;-59
2021/09/25 08:08:27;;;;;;;8.25;3.28;;;;;;;;;;1031428;28;100537;-58
2021/09/25 08:08:58;;;;;;;6.80;2.60;;;;;;;;;;1032622;28;99878;-58
2021/09/25 08:09:29;;;;;;;6.68;2.63;;;;;;;;;;1031733;28;100379;-58
2021/09/25 08:10:00;;;;;;;3.63;2.30;;;;;;;;;;1033099;28;99895;-59
2021/09/25 08:10:31;;;;;;;8.52;2.55;;;;;;;;;;1040652;28;100423;-57
2021/09/25 08:11:02;;;;;;;8.32;2.53;;;;;;;;;;1041204;28;100148;-59
2021/09/25 08:11:33;;;;;;;5.72;2.40;;;;;;;;;;1040720;27;100460;-58
2021/09/25 08:12:04;;;;;;;4.88;2.55;;;;;;;;;;1041827;28;99858;-57
2021/09/25 08:12:35;;;;;;;5.70;2.72;;;;;;;;;;1040589;28;100781;-57
2021/09/25 08:13:06;;;;;;;6.20;2.63;;;;;;;;;;1041464;28;99842;-57
2021/09/25 08:13:37;;;;;;;10.15;2.50;;;;;;;;;;1035918;28;101646;-58
2021/09/25 08:14:08;;;;;;;6.32;2.58;;;;;;;;;;1024845;28;100003;-57
2021/09/25 08:14:39;;;;;;;8.15;2.85;;;;;;;;;;1023688;28;101764;-57
2021/09/25 08:15:13;;;;;;;5.85;2.50;;;;;;;;;;1023538;28;99933;-58
2021/09/25 08:15:44;;;;;;;7.55;2.30;;;;;;;;;;1019543;28;101372;-58
2021/09/25 08:16:15;;;;;;;5.65;2.38;;;;;;;;;;1027262;28;100218;-56
2021/09/25 08:16:45;;;;;;;4.63;2.40;;;;;;;;;;1029240;28;100401;-57
2021/09/25 08:17:17;;;;;;;7.15;2.88;;;;;;;;;;1032735;28;100084;-58
2021/09/25 08:17:48;;;;;;;7.72;2.60;;;;;;;;;;1028400;28;100745;-58
2021/09/25 08:18:19;;;;;;;8.90;2.97;;;;;;;;;;1033004;28;100130;-58
2021/09/25 08:18:51;;;;;;;6.72;2.97;;;;;;;;;;1031976;28;100799;-58
2021/09/25 08:19:22;;;;;;;5.75;2.80;;;;;;;;;;1029650;28;100539;-57
2021/09/25 08:19:53;;;;;;;6.45;2.75;;;;;;;;;;1036347;28;100326;-58
2021/09/25 08:20:25;;;;;;;9.90;3.13;;;;;;;;;;1037333;28;100107;-58
2021/09/25 08:20:56;;;;;;;5.97;2.83;;;;;;;;;;1036737;28;100756;-57
2021/09/25 08:21:27;;;;;;;6.72;2.97;;;;;;;;;;1041523;28;100008;-58
2021/09/25 08:21:58;;;;;;;8.93;2.85;;;;;;;;;;1040808;28;100479;-58
2021/09/25 08:22:29;;;;;;;5.75;2.65;;;;;;;;;;1032879;28;100107;-58
2021/09/25 08:23:01;;;;;;;5.68;2.55;;;;;;;;;;1031843;28;100488;-57
2021/09/25 08:23:32;;;;;;;11.85;2.88;;;;;;;;;;1032747;28;100166;-57
2021/09/25 08:24:03;;;;;;;7.85;3.05;;;;;;;;;;1033080;28;100376;-58
2021/09/25 08:24:34;;;;;;;7.55;2.63;;;;;;;;;;1034616;28;100261;-58
2021/09/25 08:25:06;;;;;;;6.50;2.60;;;;;;;;;;1035036;28;100400;-58
2021/09/25 08:25:37;;;;;;;6.25;2.60;;;;;;;;;;1032983;28;99920;-58
2021/09/25 08:26:08;;;;;;;8.52;3.15;;;;;;;;;;1032459;28;100446;-58
2021/09/25 08:26:39;;;;;;;9.75;3.00;;;;;;;;;;1032223;28;99996;-58
2021/09/25 08:27:10;;;;;;;8.32;2.80;;;;;;;;;;1032186;28;100411;-57
2021/09/25 08:27:42;;;;;;;6.53;3.03;;;;;;;;;;1033170;28;99883;-58
2021/09/25 08:28:14;;;;;;;8.30;3.10;;;;;;;;;;1032812;28;100165;-58
2021/09/25 08:28:46;;;;;;;7.70;2.95;;;;;;;;;;1041791;28;100059;-58
2021/09/25 08:29:17;;;;;;;8.02;3.05;;;;;;;;;;1040537;28;100285;-58
2021/09/25 08:29:48;;;;;;;9.05;2.90;;;;;;;;;;1041413;28;99853;-57
2021/09/25 08:30:19;;;;;;;8.25;2.58;;;;;;;;;;1036806;27;101969;-58
2021/09/25 08:30:52;;;;;;;6.28;3.17;;;;;;;;;;1033304;28;99984;-57
2021/09/25 08:31:23;;;;;;;5.30;3.10;;;;;;;;;;1031652;28;101598;-58
2021/09/25 08:31:53;;;;;;;6.47;3.53;;;;;;;;;;1032999;28;100170;-58
2021/09/25 08:32:24;;;;;;;5.78;2.92;;;;;;;;;;1032234;28;101648;-59
2021/09/25 08:32:57;;;;;;;6.75;3.38;;;;;;;;;;1033258;28;100105;-58
2021/09/25 08:33:28;;;;;;;10.50;2.92;;;;;;;;;;1031509;28;100444;-57
2021/09/25 08:33:59;;;;;;;6.60;3.30;;;;;;;;;;1028827;28;100635;-58
2021/09/25 08:34:30;;;;;;;5.15;3.05;;;;;;;;;;1027999;28;100899;-58
2021/09/25 08:35:01;;;;;;;4.20;2.95;;;;;;;;;;1025257;28;99895;-57
2021/09/25 08:35:32;;;;;;;10.50;3.60;;;;;;;;;;1023978;28;100545;-56
2021/09/25 08:36:03;;;;;;;8.02;3.42;;;;;;;;;;1029038;28;100054;-56
2021/09/25 08:36:34;;;;;;;5.90;3.10;;;;;;;;;;1028427;28;100500;-57
2021/09/25 08:37:06;;;;;;;9.65;3.55;;;;;;;;;;1037926;28;100026;-57
2021/09/25 08:37:37;;;;;;;4.35;3.15;;;;;;;;;;1031883;28;100331;-57
2021/09/25 08:38:08;;;;;;;6.53;3.10;;;;;;;;;;1028865;28;99920;-58
2021/09/25 08:38:39;;;;;;;5.90;3.25;;;;;;;;;;1027505;28;101357;-58
2021/09/25 08:39:10;;;;;;;9.43;3.25;;;;;;;;;;1029426;28;99880;-57
2021/09/25 08:39:42;;;;;;;6.43;3.47;;;;;;;;;;1032117;28;100724;-58
2021/09/25 08:40:13;;;;;;;6.15;3.05;;;;;;;;;;1037596;28;100072;-57
2021/09/25 08:40:44;;;;;;;6.13;3.20;;;;;;;;;;1036231;28;100438;-57
2021/09/25 08:41:18;;;;;;;9.65;3.10;;;;;;;;;;1037696;28;99866;-57
2021/09/25 08:41:53;;;;;;;5.80;3.42;;;;;;;;;;1031796;28;100527;-57
2021/09/25 08:42:24;;;;;;;6.38;3.50;;;;;;;;;;1033036;28;100205;-57
2021/09/25 08:42:55;;;;;;;11.43;2.83;;;;;;;;;;1031699;28;101570;-58
2021/09/25 08:43:27;;;;;;;6.90;3.13;;;;;;;;;;1033986;28;100246;-58
2021/09/25 08:43:58;;;;;;;5.70;3.38;;;;;;;;;;1036265;28;100186;-58
2021/09/25 08:44:31;;;;;;;8.13;3.28;;;;;;;;;;1037250;28;99991;-57
2021/09/25 08:45:04;;;;;;;5.85;3.40;;;;;;;;;;1036241;28;100479;-57
2021/09/25 08:45:35;;;;;;;6.50;3.63;;;;;;;;;;1037754;28;100026;-57
2021/09/25 08:46:06;;;;;;;7.60;3.20;;;;;;;;;;1036280;28;100773;-58
2021/09/25 08:46:37;;;;;;;10.10;3.40;;;;;;;;;;1041159;28;99936;-57
2021/09/25 08:47:08;;;;;;;7.93;3.75;;;;;;;;;;1040151;28;101806;-57
2021/09/25 08:47:39;;;;;;;5.28;3.47;;;;;;;;;;1041795;28;99837;-58
2021/09/25 08:48:10;;;;;;;7.03;4.15;;;;;;;;;;1040266;27;100449;-57
2021/09/25 08:48:41;;;;;;;8.23;3.72;;;;;;;;;;1041465;27;99905;-57
2021/09/25 08:49:12;;;;;;;5.85;3.50;;;;;;;;;;1040469;27;100420;-57
2021/09/25 08:49:43;;;;;;;7.07;3.53;;;;;;;;;;1041173;27;100715;-58
2021/09/25 08:50:16;;;;;;;6.50;3.60;;;;;;;;;;1039581;28;101478;-57
2021/09/25 08:50:46;;;;;;;7.82;4.05;;;;;;;;;;1041532;28;100051;-56
2021/09/25 08:51:17;;;;;;;6.40;3.67;;;;;;;;;;1040087;28;101842;-57
2021/09/25 08:51:48;;;;;;;12.18;4.03;;;;;;;;;;1041812;27;100016;-58
2021/09/25 08:52:19;;;;;;;5.78;3.42;;;;;;;;;;1037362;28;100442;-58
2021/09/25 08:52:50;;;;;;;5.22;3.88;;;;;;;;;;1037237;28;100151;-57
2021/09/25 08:53:21;;;;;;;7.32;4.00;;;;;;;;;;1036195;28;100385;-57
2021/09/25 08:53:52;;;;;;;8.60;4.00;;;;;;;;;;1033180;28;100202;-57
2021/09/25 08:54:23;;;;;;;9.32;4.32;;;;;;;;;;1031873;28;100728;-58
2021/09/25 08:54:54;;;;;;;6.78;4.07;;;;;;;;;;1032778;28;100137;-57
2021/09/25 08:55:25;;;;;;;8.63;4.10;;;;;;;;;;1032217;28;100202;-56
2021/09/25 08:55:56;;;;;;;7.70;4.45;;;;;;;;;;1037631;28;99908;-57
2021/09/25 08:56:29;;;;;;;9.65;4.05;;;;;;;;;;1036352;28;100426;-57
2021/09/25 08:57:05;;;;;;;7.70;4.00;;;;;;;;;;1037268;28;99690;-56
2021/09/25 08:57:36;;;;;;;6.55;4.20;;;;;;;;;;1036440;28;100818;-57
2021/09/25 08:58:10;;;;;;;6.75;4.55;;;;;;;;;;1037494;28;99943;-57
2021/09/25 08:58:41;;;;;;;8.30;4.72;;;;;;;;;;1036269;28;100579;-55
2021/09/25 08:59:12;;;;;;;9.85;4.47;;;;;;;;;;1037397;28;100110;-56
2021/09/25 08:59:43;;;;;;;6.28;4.95;;;;;;;;;;1036352;28;100479;-55
2021/09/25 09:00:35;;;;;;;10.77;4.38;;;;;;;;;;1033361;28;99869;-58
2021/09/25 09:01:06;;;;;;;5.63;4.68;;;;;;;;;;1031605;28;100455;-56
2021/09/25 09:01:42;;;;;;;10.25;4.82;;;;;;;;;;1029056;28;99901;-58
2021/09/25 09:02:21;;;;;;;7.75;4.57;;;;;;;;;;1031868;28;100556;-57
2021/09/25 09:02:52;;;;;;;5.85;4.20;;;;;;;;;;1033154;28;100056;-58
2021/09/25 09:03:36;;;;;;;5.30;4.10;;;;;;;;;;1033685;28;100343;-55
2021/09/25 09:04:07;;;;;;;12.55;4.90;;;;;;;;;;1037420;28;100096;-57
2021/09/25 09:04:56;;;;;;;7.57;4.30;;;;;;;;;;1038097;28;100781;-53
2021/09/25 09:05:29;;;;;;;6.45;4.35;;;;;;;;;;1041513;28;99242;-60
2021/09/25 09:06:18;;;;;;;10.90;4.55;;;;;;;;;;1040324;28;100386;-58
2021/09/25 09:06:49;;;;;;;7.45;4.10;;;;;;;;;;1041644;28;100094;-54
2021/09/25 09:07:23;;;;;;;7.78;3.92;;;;;;;;;;1040024;27;101789;-54
2021/09/25 09:07:57;;;;;;;8.77;4.25;;;;;;;;;;1041621;28;100047;-54
2021/09/25 09:08:28;;;;;;;6.72;4.40;;;;;;;;;;1040176;28;100492;-56
2021/09/25 09:09:02;;;;;;;9.57;4.05;;;;;;;;;;1041568;27;99868;-50
2021/09/25 09:09:41;;;;;;;9.10;4.85;;;;;;;;;;1039961;27;100529;-54
2021/09/25 09:10:12;;;;;;;12.07;4.95;;;;;;;;;;1041829;28;99869;-49
2021/09/25 09:10:42;;;;;;;10.02;5.10;;;;;;;;;;1035611;28;103454;-55
2021/09/25 09:11:14;;;;;;;10.43;5.93;;;;;;;;;;1037321;28;100135;-68
2021/09/25 09:11:47;;;;;;;15.30;7.80;;;;;;;;;;1035824;28;100454;-58
2021/09/25 09:12:25;;;;;;;16.30;8.82;;;;;;;;;;1037589;28;99965;-58
2021/09/25 09:12:56;;;;;;;23.60;10.65;;;;;;;;;;1040365;28;100615;-58
2021/09/25 09:13:28;;;;;;;15.07;8.13;;;;;;;;;;1036649;28;99930;-58
2021/09/25 09:14:01;;;;;;;16.40;8.27;;;;;;;;;;1031659;28;100418;-58
2021/09/25 09:14:41;;;;;;;19.38;9.23;;;;;;;;;;1033109;28;99892;-58
2021/09/25 09:15:12;;;;;;;;;;;;;;;;;;1034268;28;100767;-58
2021/09/25 09:15:44;;;;;;;17.48;8.48;;;;;;;;;;1038964;28;100206;-58
2021/09/25 09:16:16;;;;;;;16.58;8.05;;;;;;;;;;1040567;28;100497;-57
2021/09/25 09:16:58;;;;;;;14.82;6.53;;;;;;;;;;1037181;28;100130;-57
2021/09/25 09:17:30;;;;;;;12.50;6.43;;;;;;;;;;1035757;28;100500;-58
2021/09/25 09:18:02;;;;;;;12.07;5.93;;;;;;;;;;1032795;28;99926;-58
2021/09/25 09:18:39;;;;;;;12.60;6.82;;;;;;;;;;1033865;28;100397;-58
2021/09/25 09:19:18;;;;;;;11.45;6.10;;;;;;;;;;1037241;28;99944;-58
2021/09/25 09:19:49;;;;;;;15.45;6.70;;;;;;;;;;1038675;28;100564;-58
2021/09/25 09:20:20;;;;;;;12.20;6.63;;;;;;;;;;1037313;28;99937;-58
2021/09/25 09:21:06;;;;;;;16.30;7.18;;;;;;;;;;1035892;28;100798;-58
2021/09/25 09:21:37;;;;;;;12.32;6.65;;;;;;;;;;1033001;28;100013;-55
2021/09/25 09:22:08;;;;;;;11.68;6.68;;;;;;;;;;1027831;28;100385;-57
2021/09/25 09:22:39;;;;;;;7.97;5.55;;;;;;;;;;1030214;28;101912;-56
2021/09/25 09:23:16;;;;;;;8.77;5.60;;;;;;;;;;1029397;28;100487;-47
2021/09/25 09:23:48;;;;;;;10.13;5.93;;;;;;;;;;1035778;28;100086;-57
2021/09/25 09:24:19;;;;;;;9.65;5.40;;;;;;;;;;1033373;28;100759;-58
2021/09/25 09:24:55;;;;;;;11.40;5.80;;;;;;;;;;1036880;28;99813;-58
2021/09/25 09:25:31;;;;;;;10.65;6.47;;;;;;;;;;1031556;28;101452;-58
2021/09/25 09:26:04;;;;;;;13.07;5.68;;;;;;;;;;1032637;28;100146;-58
2021/09/25 09:26:41;;;;;;;11.98;5.88;;;;;;;;;;1031280;28;101402;-57
2021/09/25 09:27:15;;;;;;;10.85;5.10;;;;;;;;;;1035355;28;100114;-57
2021/09/25 09:27:46;;;;;;;8.32;5.28;;;;;;;;;;1031603;28;103524;-58
2021/09/25 09:28:26;;;;;;;9.35;5.50;;;;;;;;;;1032869;28;99934;-57
2021/09/25 09:28:59;;;;;;;11.93;5.47;;;;;;;;;;1031795;28;100531;-57
2021/09/25 09:29:33;;;;;;;8.48;6.07;;;;;;;;;;1034542;28;99965;-57
2021/09/25 09:30:14;;;;;;;9.75;5.57;;;;;;;;;;1035859;28;100499;-57
2021/09/25 09:30:50;;;;;;;10.25;5.88;;;;;;;;;;1036010;28;100171;-58
2021/09/25 09:31:21;;;;;;;11.18;6.45;;;;;;;;;;1028075;28;100517;-58
2021/09/25 09:31:55;;;;;;;7.20;5.13;;;;;;;;;;1027943;28;100220;-57
2021/09/25 09:32:25;;;;;;;10.63;6.03;;;;;;;;;;1027826;28;100584;-59
2021/09/25 09:32:56;;;;;;;7.88;5.30;;;;;;;;;;1029476;28;100044;-58
2021/09/25 09:33:39;;;;;;;7.68;5.63;;;;;;;;;;1027982;28;100365;-58
2021/09/25 09:34:10;;;;;;;12.05;5.70;;;;;;;;;;1032403;28;100828;-58
2021/09/25 09:34:43;;;;;;;11.38;5.80;;;;;;;;;;1029299;28;101654;-58
2021/09/25 09:35:20;;;;;;;7.28;6.05;;;;;;;;;;1035164;28;100092;-58